LIMF/TRN METAR and TAF weather

Enter ICAO airport designator
Station Type Date Time Source
LIMF METAR 2020/02/16 19:50 UTC NOAA

LIMF 161950Z 33002KT 4000 BR NSC 07/03 Q1028


Station Type Date Time Source
LIMF Decoded METAR 2020/02/16 19:50 UTC NOAA

Torino / Caselle, Italy (LIMF) 45-13N 007-39E 287M
Feb 16, 2020 - 02:50 PM EST / 2020.02.16 1950 UTC
Wind: from the NNW (330 degrees) at 2 MPH (2 KT):0
Visibility: 2 mile(s):0
Weather: mist
Temperature: 44 F (7 C)
Dew Point: 37 F (3 C)
Relative Humidity: 75%
Pressure (altimeter): 30.36 in. Hg (1028 hPa)
ob: LIMF 161950Z 33002KT 4000 BR NSC 07/03 Q1028
cycle: 20

Station Type Date Time Source
LIMF TAF 2020/02/16 18:21 UTC NOAA

TAF LIMF 161700Z 1618/1718 VRB05KT 6000 SCT050 PROB30
TEMPO 1702/1706 1500 BCFG

Example: see airport list